Aviation Digital Data Service (ADDS)

Output produced by METARs form (2052 UTC 29 May 2017)
found at http://www.aviationweather.gov/adds/metars/
 
KPAE 291739Z 2918/3018 21005KT P6SM SCT002 
     FM291900 28005KT P6SM SCT250 
     FM292300 31005KT P6SM SCT250 
     FM300300 VRB05KT P6SM SCT090 BKN250 
     FM301200 19005KT P6SM OVC010
       
KPBF 291730Z 2918/3018 09003KT P6SM BKN250 
     FM300000 VRB03KT P6SM SCT250 
     FM300900 33004KT P6SM BKN250
       
KPBG 291740Z 2918/3018 16010G20KT P6SM -RA OVC060 
     TEMPO 2918/2922 4SM -SHRA BR OVC025 
     FM300000 15010KT P6SM BKN030 
     FM301200 15012KT P6SM VCSH BKN030
       
KPBI 291735Z 2918/3018 10008KT P6SM SCT035 
     FM292100 14010KT P6SM FEW030 
     FM300000 VRB05KT P6SM SKC 
     FM301600 15007KT P6SM SCT250
       
KPDK 291937Z 2920/3018 26006KT P6SM BKN050 BKN100 
     TEMPO 2920/2922 VRB10G25KT 4SM -TSRA BR BKN025CB 
     FM300000 27005KT P6SM VCTS SCT050CB BKN120 
     FM300300 26002KT P6SM BKN050 
     FM301200 27004KT P6SM BKN015 
     FM301600 27007KT P6SM BKN025 
     PROB30 3017/3018 4SM -TSRA BKN020CB
       
KPDT 291720Z 2918/3018 34004KT P6SM SKC 
     FM292000 35009KT P6SM FEW080 SCT150 
     FM300100 03008KT P6SM FEW080 SCT150 
     FM300500 12008KT P6SM SCT150
       
KPDX 292051Z 2921/3018 33004KT P6SM OVC020 
     FM292200 31006KT P6SM SCT050 
     FM300900 32005KT P6SM OVC010
       
KPGA 291725Z 2918/3018 VRB05KT P6SM FEW120
       
KPGD 291720Z 2918/3018 27008KT P6SM SCT040 
     FM300200 VRB03KT P6SM FEW030 
     FM301500 21006KT P6SM FEW035 SCT250
       
KPGV 291727Z 2918/3018 29008KT P6SM SKC 
     FM300000 00000KT P6SM VCTS SCT050CB 
     FM300700 00000KT P6SM SCT025 BKN060 
     FM301200 24006KT P6SM BKN080 AMD LTD TO CLD VIS AND WIND
       
KPHF 291739Z 2918/3018 27004KT P6SM SCT030 
     FM292000 08006KT P6SM SCT040 
     FM292300 11006KT P6SM BKN060 
     FM300600 11006KT P6SM BKN015
       
KPHL 291942Z 2920/3024 10007KT P6SM OVC012 
     FM292200 12006KT P6SM BKN015 
     FM300200 11005KT 5SM BR OVC010 
     FM300600 12004KT 4SM BR OVC005 
     TEMPO 3008/3011 2SM BR OVC003 
     FM301500 12008KT 5SM BR OVC010
       
KPHX 292045Z 2921/3018 VRB05KT P6SM BKN250 
     FM292200 28007KT P6SM BKN250 
     FM300800 10007KT P6SM BKN250
       
KPIA 291751Z 2918/3018 30010KT P6SM SCT100 
     FM291900 28012G20KT P6SM SCT100 
     FM300000 28006KT P6SM FEW250
       
KPIE 291720Z 2918/3018 31008KT P6SM SCT035 
     FM300200 VRB04KT P6SM FEW040 
     FM301500 06006KT P6SM FEW035 SCT250
       
KPIH 291720Z 2918/3018 VRB06KT P6SM SKC
       
KPIR 291720Z 2918/3018 32020G28KT P6SM SCT040 
     FM300200 32006KT P6SM FEW200 
     FM301400 31010KT P6SM FEW250
       
KPIT 291720Z 2918/3024 27009KT P6SM SCT050 
     FM300000 24004KT P6SM SCT200 
     FM301600 23010KT P6SM VCSH SCT060
       
KPKB 291952Z 2920/3018 25005KT P6SM VCSH BKN050 
     FM300100 VRB03KT P6SM FEW050 SCT250 
     FM301400 22004KT P6SM BKN050
       
KPMD 291720Z 2918/3018 VRB03KT P6SM SCT200 
     FM292000 24010KT P6SM SCT200 
     FM292200 24015G25KT P6SM SCT200 
     FM300200 24010KT P6SM SCT200 
     FM300700 21007KT P6SM SCT200 
     FM301500 VRB03KT P6SM SCT200
       
KPNA 291727Z 2918/3018 31007KT P6SM SCT050 
     FM292100 33008KT P6SM VCTS SCT060CB BKN110 
     FM300300 30006KT P6SM SCT090 AMD LTD TO CLD VIS AND WIND
       
KPNE 291721Z 2918/3018 10007KT P6SM OVC015 
     FM291900 10006KT P6SM BKN015 
     FM300200 11005KT 5SM BR OVC010 
     FM300600 12004KT 4SM BR OVC005 
     TEMPO 3008/3011 2SM BR OVC003 
     FM301500 12008KT 5SM BR OVC010
       
KPNS 291734Z 2918/3018 19010KT P6SM SCT011 BKN020 BKN110 
     FM300000 20005KT P6SM SCT030 BKN100 
     FM300900 24005KT P6SM SHRA BKN030 
     FM301500 VRB15KT P6SM VCTS BKN030CB OVC050 
     FM301700 06010KT P6SM OVC050
       
TAF KPOB 291700Z 2917/3023 27009KT 9999 FEW150 QNH2992INS 
     BECMG 2923/2924 VRB06KT 9999 BKN040 QNH2996INS 
     BECMG 3002/3003 01009KT 8000 -SHRA SCT040 QNH2998INS 
     TEMPO 3002/3006 25015G25KT 8000 -TSRA OVC030CB 
     BECMG 3008/3009 VRB06KT 4800 -SHRA BKN008 QNH3000INS 
     BECMG 3014/3015 VRB06KT 9999 NSW BKN020 QNH3010INS TX31/2920Z TN21/3011Z
       
KPOU 291811Z 2918/3018 09004KT P6SM VCSH FEW010 BKN026 OVC035 
     FM292000 11004KT 6SM BR VCSH BKN020 
     FM292200 12004KT P6SM BKN020 
     FM300200 VRB03KT P6SM BKN020 
     FM300400 VRB03KT P6SM BKN010 
     PROB30 3014/3015 4SM -SHRA OVC003 
     FM301500 17006KT P6SM OVC020 
     PROB30 3015/3018 4SM -TSRA OVC007CB
       
KPQI 291731Z 2918/3018 12009G16KT P6SM SCT025 BKN035 
     FM300300 14007KT 6SM -SHRA OVC025 
     FM300800 15007KT 3SM -SHRA BR OVC018 
     FM301230 16008KT P6SM OVC028 
     FM301600 18012KT P6SM BKN040
       
KPRB 291720Z 2918/3018 32008KT P6SM SCT200 
     FM300100 29015KT P6SM SCT200 
     FM300700 31008KT P6SM SCT200 
     FM301100 33006KT P6SM OVC005 
     FM301600 32006KT P6SM FEW007
       
KPRC 291725Z 2918/3018 VRB05KT P6SM FEW120
       
KPSC 291720Z 2918/3018 35005KT P6SM SKC 
     FM300200 36003KT P6SM FEW150 
     FM301200 VRB03KT P6SM SCT180
       
KPSF 291728Z 2918/3018 11009KT 6SM -RA OVC020 
     FM292000 12008KT 6SM BR VCSH OVC020 
     FM292100 12007KT P6SM BKN020 
     FM300300 13004KT P6SM BKN010 
     PROB30 3012/3013 4SM -SHRA OVC003 
     FM301300 16007KT P6SM BKN020 
     PROB30 3013/3018 4SM -TSRA OVC007CB AMD NOT SKED
       
KPSM 291735Z 2918/3018 09009KT 3SM -SHRA BR OVC006 
     FM300000 VRB03KT 1SM BR OVC003 
     FM301300 14005KT 5SM BR OVC008
       
KPSP 291728Z 2918/3018 VRB06KT P6SM SCT200 
     FM300000 33012G20KT P6SM SCT200 
     FM300700 VRB05KT P6SM SCT200
       
KPUB 291720Z 2918/3018 11007KT P6SM FEW070 SCT150 
     FM292000 08011KT P6SM SCT070 SCT150 
     FM292300 03014KT P6SM VCTS SCT060CB BKN100 
     FM300400 29006KT P6SM SCT060 BKN100
       
KPUW 291725Z 2918/3018 10009KT P6SM SKC 
     FM292100 VRB03KT P6SM SKC 
     FM301500 09011KT P6SM SKC
       
KPVD 292010Z 2920/3018 04010KT P6SM -RA OVC010 
     FM292200 05007KT P6SM OVC008 
     FM300400 03004KT 3SM BR OVC008 
     FM301100 11004KT 2SM BR BKN015 
     FM301400 14004KT P6SM BKN015 
     FM301700 15006KT P6SM BKN020
       
KPVU 291720Z 2918/3018 24006KT P6SM SKC 
     FM292200 31008KT P6SM SKC 
     FM300400 VRB04KT P6SM SKC
       
KPWM 291735Z 2918/3018 10012G20KT 1SM -SHRA BR OVC005 
     TEMPO 2918/2922 2SM -SHRA BR SCT005 OVC010 
     FM292200 09006KT 1SM -DZ BR OVC003 
     FM300400 VRB03KT 1/2SM -DZ FG VV002 
     FM301300 14006KT 5SM BR OVC008